KHOU/HOU METAR and TAF weather

Enter ICAO airport designator
Station Type Date Time Source
KHOU METAR 2019/12/06 08:53 UTC NOAA

KHOU 060853Z 21006KT 10SM FEW030 BKN250 17/16 A3000 RMK AO2 SLP165 T01720161 55004


Station Type Date Time Source
KHOU Decoded METAR 2019/12/06 08:53 UTC NOAA

HOUSTON HOBBY AIRPORT, TX, United States (KHOU) 29-38N 095-17W 36M
Dec 06, 2019 - 03:53 AM EST / 2019.12.06 0853 UTC
Wind: from the SSW (210 degrees) at 7 MPH (6 KT):0
Visibility: 10 mile(s):0
Sky conditions: mostly cloudy
Temperature: 63.0 F (17.2 C)
Dew Point: 61.0 F (16.1 C)
Relative Humidity: 93%
Pressure (altimeter): 30 in. Hg (1015 hPa)
Pressure tendency: 0.01 inches (0.4 hPa) lower than three hours ago
ob: KHOU 060853Z 21006KT 10SM FEW030 BKN250 17/16 A3000 RMK AO2 SLP165 T01720161 55004
cycle: 9

Station Type Date Time Source
KHOU TAF 2019/12/06 06:30 UTC NOAA

TAF KHOU 060527Z 0606/0706 16005KT P6SM FEW025 BKN250
FM060900 VRB03KT 4SM BR SCT007 BKN180
FM061400 28007KT P6SM FEW008 SCT014
FM061600 30011KT P6SM OVC250
FM070300 34008KT P6SM FEW250

Example: see airport list